Time;durP1;ratioP1;P1;durP2;ratioP2;P2;SDS_P1;SDS_P2;PMS_P1;PMS_P2;Temp;Humidity;BMP_temperature;BMP_pressure;BME280_temperature;BME280_humidity;BME280_pressure;Samples;Min_cycle;Max_cycle;Signal;HPM_P1;HPM_P2
2023/04/10 00:00:42;;;;;;;1.00;1.00;;;9.80;99.90;;;;;;5011832;28;20049;-64
2023/04/10 00:03:07;;;;;;;1.42;1.38;;;9.80;99.90;;;;;;5020035;28;20128;-65
2023/04/10 00:05:33;;;;;;;1.10;1.10;;;9.80;99.90;;;;;;5020783;28;20327;-65
2023/04/10 00:07:59;;;;;;;3.95;3.25;;;9.70;99.90;;;;;;5023607;28;20393;-65
2023/04/10 00:10:25;;;;;;;3.28;2.45;;;9.70;99.90;;;;;;5015223;28;20053;-65
2023/04/10 00:12:52;;;;;;;1.77;1.63;;;9.70;99.90;;;;;;5016685;28;20104;-64
2023/04/10 00:15:18;;;;;;;1.77;1.60;;;9.70;99.90;;;;;;5014240;28;20046;-64
2023/04/10 00:17:44;;;;;;;1.60;1.50;;;9.60;99.90;;;;;;5018193;28;20056;-64
2023/04/10 00:20:10;;;;;;;2.63;2.40;;;9.50;99.90;;;;;;5010699;28;20054;-65
2023/04/10 00:22:35;;;;;;;3.10;2.90;;;9.40;99.90;;;;;;5016430;28;20072;-64
2023/04/10 00:25:01;;;;;;;3.08;2.88;;;9.40;99.90;;;;;;5013188;28;20524;-64
2023/04/10 00:27:26;;;;;;;2.33;2.13;;;9.40;99.90;;;;;;5017765;28;20461;-65
2023/04/10 00:29:52;;;;;;;3.55;3.03;;;9.40;99.90;;;;;;5011775;28;20120;-64
2023/04/10 00:32:17;;;;;;;2.95;2.75;;;9.40;99.90;;;;;;5011393;28;20045;-64
2023/04/10 00:34:43;;;;;;;3.00;2.33;;;9.30;99.90;;;;;;5020197;28;20037;-65
2023/04/10 00:37:08;;;;;;;3.63;3.33;;;9.30;99.90;;;;;;5017225;28;20044;-65
2023/04/10 00:39:34;;;;;;;1.85;1.65;;;9.20;99.90;;;;;;5013184;28;20056;-65
2023/04/10 00:42:01;;;;;;;1.20;1.13;;;9.20;99.90;;;;;;5009939;28;20165;-65
2023/04/10 00:44:27;;;;;;;3.28;2.97;;;9.30;99.90;;;;;;5009415;28;20041;-65
2023/04/10 00:46:52;;;;;;;4.40;2.45;;;9.30;99.90;;;;;;5010834;28;20045;-65
2023/04/10 00:49:18;;;;;;;1.77;1.67;;;9.30;99.90;;;;;;5013236;28;20037;-64
2023/04/10 00:51:44;;;;;;;3.22;1.27;;;9.30;99.90;;;;;;5011507;28;20505;-65
2023/04/10 00:54:11;;;;;;;2.40;2.20;;;9.20;99.90;;;;;;5018282;28;20046;-65
2023/04/10 00:56:37;;;;;;;2.70;2.45;;;9.20;99.90;;;;;;5014128;28;20050;-65
2023/04/10 00:59:02;;;;;;;2.90;2.70;;;9.20;99.90;;;;;;5012143;28;20042;-65
2023/04/10 01:01:28;;;;;;;1.80;1.58;;;9.20;99.90;;;;;;5020255;28;20464;-65
2023/04/10 01:03:54;;;;;;;5.68;3.50;;;9.20;99.90;;;;;;5011689;28;20068;-65
2023/04/10 01:06:50;;;;;;;2.80;2.60;;;9.20;99.90;;;;;;5021181;28;20077;-65
2023/04/10 01:09:19;;;;;;;1.55;1.30;;;9.20;99.90;;;;;;5023057;28;20404;-65
2023/04/10 01:12:03;;;;;;;3.05;2.85;;;9.20;99.90;;;;;;5018307;28;20053;-64
2023/04/10 01:14:48;;;;;;;2.58;2.38;;;9.10;99.90;;;;;;5022173;28;20045;-64
2023/04/10 01:17:25;;;;;;;3.42;3.17;;;9.10;99.90;;;;;;5016786;28;20038;-65
2023/04/10 01:20:03;;;;;;;2.08;1.92;;;9.10;99.90;;;;;;5011580;28;20105;-64
2023/04/10 01:22:40;;;;;;;2.28;2.05;;;9.10;99.90;;;;;;5022099;28;20674;-65
2023/04/10 01:25:34;;;;;;;2.88;2.67;;;9.00;99.90;;;;;;5012232;28;20050;-65
2023/04/10 01:28:03;;;;;;;;;;;9.00;99.90;;;;;;5011086;28;20054;-65
2023/04/10 01:30:31;;;;;;;2.95;2.55;;;9.00;99.90;;;;;;5015451;28;19918;-64
2023/04/10 01:33:00;;;;;;;9.27;4.50;;;9.00;99.90;;;;;;5012469;28;20046;-64
2023/04/10 01:35:28;;;;;;;9.95;3.53;;;9.00;99.90;;;;;;5008897;28;20046;-65
2023/04/10 01:37:55;;;;;;;2.17;2.05;;;9.00;99.90;;;;;;5017221;28;20148;-64
2023/04/10 01:40:22;;;;;;;1.58;1.48;;;9.00;99.90;;;;;;5008697;28;20096;-64
2023/04/10 01:42:51;;;;;;;2.42;2.28;;;8.90;99.90;;;;;;5010047;28;20104;-64
2023/04/10 01:45:25;;;;;;;3.42;3.13;;;8.80;99.90;;;;;;5015789;28;20045;-65
2023/04/10 01:47:51;;;;;;;;;;;8.80;99.90;;;;;;5013274;28;20046;-65
2023/04/10 01:50:18;;;;;;;4.40;1.55;;;8.80;99.90;;;;;;5019976;28;20004;-65
2023/04/10 01:52:45;;;;;;;1.63;1.52;;;8.80;99.90;;;;;;5025553;28;20052;-64
2023/04/10 01:55:11;;;;;;;3.83;3.53;;;8.80;99.90;;;;;;5017958;28;20049;-65
2023/04/10 01:57:36;;;;;;;1.70;1.60;;;8.70;99.90;;;;;;5021049;28;20041;-64
2023/04/10 02:00:03;;;;;;;2.92;2.72;;;8.70;99.90;;;;;;5025961;28;20049;-64
2023/04/10 02:02:32;;;;;;;1.80;1.70;;;8.70;99.90;;;;;;5016213;28;20078;-64
2023/04/10 02:04:58;;;;;;;2.80;2.60;;;8.70;99.90;;;;;;5014577;28;20038;-64
2023/04/10 02:07:35;;;;;;;2.65;2.25;;;8.70;99.90;;;;;;5023580;28;20087;-65
2023/04/10 02:10:07;;;;;;;3.20;2.90;;;8.70;99.90;;;;;;5021695;28;20057;-65
2023/04/10 02:12:45;;;;;;;3.90;2.75;;;8.70;99.90;;;;;;5024180;28;20056;-64
2023/04/10 02:15:11;;;;;;;2.15;2.05;;;8.70;99.90;;;;;;5017084;28;20094;-64
2023/04/10 02:17:38;;;;;;;4.20;2.08;;;8.70;99.90;;;;;;5020503;28;20037;-64
2023/04/10 02:20:06;;;;;;;6.03;4.05;;;8.70;99.90;;;;;;5014618;28;20042;-64
2023/04/10 02:22:32;;;;;;;1.52;1.42;;;8.60;99.90;;;;;;5019846;28;20071;-64
2023/04/10 02:24:58;;;;;;;5.45;4.13;;;8.60;99.90;;;;;;5013211;28;20490;-64
2023/04/10 02:27:33;;;;;;;4.03;2.97;;;8.60;99.90;;;;;;5019675;28;20148;-64
2023/04/10 02:30:01;;;;;;;4.18;2.45;;;8.60;99.90;;;;;;5011909;28;20073;-64
2023/04/10 02:32:26;;;;;;;3.50;3.20;;;8.50;99.90;;;;;;5024972;28;20049;-64
2023/04/10 02:34:52;;;;;;;3.75;2.95;;;8.50;99.90;;;;;;5014363;28;20443;-64
2023/04/10 02:37:18;;;;;;;2.10;1.98;;;8.50;99.90;;;;;;5015223;28;20038;-64
2023/04/10 02:39:43;;;;;;;1.65;1.58;;;8.50;99.90;;;;;;5016282;28;20546;-64
2023/04/10 02:42:09;;;;;;;4.10;3.53;;;8.50;99.90;;;;;;5013600;28;20042;-64
2023/04/10 02:44:34;;;;;;;1.60;1.50;;;8.50;99.90;;;;;;5016521;28;20081;-65
2023/04/10 02:47:00;;;;;;;2.30;2.10;;;8.50;99.90;;;;;;5043720;28;20093;-64
2023/04/10 02:49:26;;;;;;;1.02;1.02;;;8.50;99.90;;;;;;5025195;28;20076;-64
2023/04/10 02:51:51;;;;;;;0.98;0.98;;;8.50;99.90;;;;;;5016080;28;20128;-64
2023/04/10 02:54:17;;;;;;;3.00;2.78;;;8.50;99.90;;;;;;5017543;28;20038;-64
2023/04/10 02:56:43;;;;;;;3.42;2.72;;;8.50;99.90;;;;;;5012385;28;20512;-64
2023/04/10 02:59:08;;;;;;;1.88;1.77;;;8.50;99.90;;;;;;5015680;28;20050;-64
2023/04/10 03:01:34;;;;;;;3.72;2.78;;;8.50;99.90;;;;;;5012367;28;20050;-64
2023/04/10 03:04:02;;;;;;;3.65;2.17;;;8.40;99.90;;;;;;5016271;28;20184;-64
2023/04/10 03:06:28;;;;;;;1.60;1.48;;;8.40;99.90;;;;;;5028438;28;20046;-64
2023/04/10 03:08:53;;;;;;;1.80;1.48;;;8.40;99.90;;;;;;5015810;28;20042;-64
2023/04/10 03:11:19;;;;;;;4.22;2.53;;;8.30;99.90;;;;;;5010688;28;20046;-64
2023/04/10 03:13:45;;;;;;;3.05;2.53;;;8.40;99.90;;;;;;5015187;28;20050;-64
2023/04/10 03:16:10;;;;;;;1.20;1.20;;;8.30;99.90;;;;;;5012440;28;20049;-64
2023/04/10 03:18:36;;;;;;;1.30;1.27;;;8.20;99.90;;;;;;5022380;28;20045;-64
2023/04/10 03:21:02;;;;;;;6.13;3.72;;;8.40;99.90;;;;;;5018764;28;20037;-64
2023/04/10 03:23:27;;;;;;;4.43;3.78;;;8.30;99.90;;;;;;5026704;28;20084;-64
2023/04/10 03:25:53;;;;;;;3.30;3.05;;;8.30;99.90;;;;;;5012845;28;20087;-64
2023/04/10 03:28:19;;;;;;;2.35;2.17;;;8.20;99.90;;;;;;5023753;28;20083;-64
2023/04/10 03:30:45;;;;;;;5.18;3.88;;;8.20;99.90;;;;;;5011483;28;20108;-64
2023/04/10 03:33:11;;;;;;;4.50;4.13;;;8.20;99.90;;;;;;5010960;28;20529;-65
2023/04/10 03:35:36;;;;;;;1.25;1.17;;;8.20;99.90;;;;;;5013871;28;20397;-65
2023/04/10 03:38:02;;;;;;;13.77;2.17;;;8.10;99.90;;;;;;5012308;28;20050;-64
2023/04/10 03:40:27;;;;;;;3.10;2.85;;;8.10;99.90;;;;;;5010266;28;20454;-64
2023/04/10 03:42:53;;;;;;;1.88;1.58;;;8.10;99.90;;;;;;5018331;28;20065;-64
2023/04/10 03:45:19;;;;;;;2.28;2.17;;;8.10;99.90;;;;;;5021026;28;20069;-65
2023/04/10 03:47:44;;;;;;;1.45;1.40;;;8.10;99.90;;;;;;5013396;28;21108;-64
2023/04/10 03:50:10;;;;;;;1.52;1.42;;;8.20;99.90;;;;;;5017257;28;20081;-64
2023/04/10 03:52:36;;;;;;;3.60;3.30;;;8.20;99.90;;;;;;5011667;28;20050;-64
2023/04/10 03:55:01;;;;;;;2.95;1.98;;;8.10;99.90;;;;;;5009947;28;20050;-64
2023/04/10 03:57:27;;;;;;;1.75;1.35;;;8.10;99.90;;;;;;5012715;28;20100;-64
2023/04/10 03:59:52;;;;;;;0.95;0.93;;;8.10;99.90;;;;;;5023451;28;20041;-64
2023/04/10 04:02:18;;;;;;;8.43;2.78;;;8.20;99.90;;;;;;5016961;28;20073;-64
2023/04/10 04:04:44;;;;;;;3.75;2.80;;;8.10;99.90;;;;;;5013207;28;20058;-64
2023/04/10 04:07:10;;;;;;;26.63;4.30;;;8.10;99.90;;;;;;5014710;28;20040;-64
2023/04/10 04:09:35;;;;;;;12.82;3.38;;;8.10;99.90;;;;;;5009680;28;20140;-64
2023/04/10 04:12:01;;;;;;;3.83;3.33;;;8.20;99.90;;;;;;5014626;28;20041;-64
2023/04/10 04:14:26;;;;;;;1.92;1.60;;;8.10;99.90;;;;;;5022370;28;20037;-64
2023/04/10 04:16:52;;;;;;;4.57;2.58;;;8.10;99.90;;;;;;5021440;28;20049;-64
2023/04/10 04:19:17;;;;;;;5.00;2.72;;;8.10;99.90;;;;;;5012860;28;20502;-64
2023/04/10 04:21:43;;;;;;;2.72;2.35;;;8.10;99.90;;;;;;5022457;28;20047;-64
2023/04/10 04:24:09;;;;;;;6.55;2.10;;;8.10;99.90;;;;;;5009855;28;20573;-64
2023/04/10 04:26:35;;;;;;;3.00;2.60;;;8.10;99.90;;;;;;5013710;28;20061;-65
2023/04/10 04:29:01;;;;;;;1.60;1.50;;;8.00;99.90;;;;;;5010594;28;20057;-64
2023/04/10 04:31:31;;;;;;;6.10;2.58;;;8.10;99.90;;;;;;5017995;28;20092;-64
2023/04/10 04:33:57;;;;;;;1.67;1.58;;;8.00;99.90;;;;;;5027829;28;20405;-64
2023/04/10 04:36:23;;;;;;;7.45;4.95;;;8.00;99.90;;;;;;5011015;28;20443;-64
2023/04/10 04:38:48;;;;;;;1.88;1.77;;;8.00;99.90;;;;;;5009971;28;20556;-64
2023/04/10 04:41:14;;;;;;;4.40;3.72;;;8.00;99.90;;;;;;5019642;28;20038;-64
2023/04/10 04:43:40;;;;;;;5.78;4.35;;;8.00;99.90;;;;;;5012903;28;20064;-64
2023/04/10 04:46:06;;;;;;;2.00;1.73;;;8.00;99.90;;;;;;5019565;28;20061;-64
2023/04/10 04:48:32;;;;;;;1.92;1.83;;;8.00;99.90;;;;;;5012774;28;20184;-64
2023/04/10 04:50:58;;;;;;;2.85;2.65;;;8.00;99.90;;;;;;5015270;28;20116;-64
2023/04/10 04:53:23;;;;;;;1.52;1.42;;;7.90;99.90;;;;;;5034485;28;20046;-65
2023/04/10 04:55:49;;;;;;;1.65;1.55;;;7.90;99.90;;;;;;5012681;28;20045;-64
2023/04/10 04:58:15;;;;;;;3.22;2.92;;;8.00;99.90;;;;;;5011468;28;20139;-64
2023/04/10 05:00:40;;;;;;;1.33;1.27;;;7.90;99.90;;;;;;5010735;28;20045;-64
2023/04/10 05:03:06;;;;;;;2.80;2.60;;;8.00;99.90;;;;;;5010872;28;20041;-65
2023/04/10 05:05:31;;;;;;;1.10;1.05;;;8.10;99.90;;;;;;5019540;28;20050;-64
2023/04/10 05:07:57;;;;;;;5.35;3.20;;;8.00;99.90;;;;;;5011021;28;20131;-64
2023/04/10 05:10:22;;;;;;;2.33;2.13;;;8.00;99.90;;;;;;5011482;28;20383;-65
2023/04/10 05:12:48;;;;;;;20.42;4.32;;;8.00;99.90;;;;;;5009367;28;20405;-64
2023/04/10 05:15:14;;;;;;;2.20;2.10;;;8.00;99.90;;;;;;5023785;28;20045;-64
2023/04/10 05:17:40;;;;;;;3.80;3.08;;;8.00;99.90;;;;;;5009788;28;20394;-64
2023/04/10 05:20:06;;;;;;;1.27;1.27;;;8.00;99.90;;;;;;5013184;28;20460;-64
2023/04/10 05:22:32;;;;;;;2.42;2.22;;;8.10;99.90;;;;;;5029583;28;20041;-65
2023/04/10 05:24:58;;;;;;;7.40;2.38;;;8.10;99.90;;;;;;5013587;28;20067;-65
2023/04/10 05:27:25;;;;;;;1.65;1.55;;;8.10;99.90;;;;;;5013961;28;20565;-65
2023/04/10 05:29:51;;;;;;;0.40;0.40;;;8.20;99.90;;;;;;5021277;28;20775;-64
2023/04/10 05:32:16;;;;;;;1.23;1.20;;;8.10;99.90;;;;;;5013011;28;20088;-65
2023/04/10 05:34:42;;;;;;;1.48;1.38;;;8.20;99.90;;;;;;5023680;28;20037;-65
2023/04/10 05:37:08;;;;;;;0.35;0.35;;;8.20;99.90;;;;;;5016831;28;20034;-65
2023/04/10 05:39:33;;;;;;;1.90;1.75;;;8.20;99.90;;;;;;5017282;28;20053;-65
2023/04/10 05:42:00;;;;;;;2.30;2.10;;;8.30;99.90;;;;;;5024975;28;20037;-65
2023/04/10 05:44:26;;;;;;;2.35;2.15;;;8.20;99.90;;;;;;5016789;28;20037;-65
2023/04/10 05:46:51;;;;;;;0.88;0.88;;;8.20;99.90;;;;;;5016689;28;20515;-65
2023/04/10 05:49:17;;;;;;;1.90;1.60;;;8.20;99.90;;;;;;5018237;28;20041;-65
2023/04/10 05:51:42;;;;;;;3.10;1.25;;;8.30;99.90;;;;;;5019018;28;20129;-65
2023/04/10 05:54:08;;;;;;;1.38;1.27;;;8.30;99.90;;;;;;5022318;28;20481;-65
2023/04/10 05:56:33;;;;;;;1.15;1.10;;;8.30;99.90;;;;;;5022290;28;20116;-65
2023/04/10 05:58:59;;;;;;;6.22;3.10;;;8.30;99.90;;;;;;5014873;28;20084;-65
2023/04/10 06:01:25;;;;;;;0.20;0.20;;;8.40;99.90;;;;;;5024741;28;20049;-65
2023/04/10 06:03:50;;;;;;;0.40;0.40;;;8.50;99.90;;;;;;5015463;28;20096;-65
2023/04/10 06:06:16;;;;;;;2.47;2.28;;;8.50;99.90;;;;;;5021110;28;20045;-64
2023/04/10 06:08:42;;;;;;;2.15;1.80;;;8.60;99.90;;;;;;5012467;28;20050;-65
2023/04/10 06:11:07;;;;;;;2.85;2.65;;;8.60;99.90;;;;;;5018776;28;20040;-65
2023/04/10 06:13:33;;;;;;;0.25;0.25;;;8.70;99.90;;;;;;5016956;28;20544;-65
2023/04/10 06:15:58;;;;;;;5.85;2.78;;;8.70;99.90;;;;;;5014388;28;20501;-64
2023/04/10 06:18:24;;;;;;;0.85;0.85;;;8.80;99.90;;;;;;5013149;28;20056;-65
2023/04/10 06:20:50;;;;;;;0.47;0.47;;;8.90;99.90;;;;;;5023670;28;20042;-65
2023/04/10 06:23:15;;;;;;;2.05;1.85;;;8.90;99.90;;;;;;5019432;28;20050;-65
2023/04/10 06:25:42;;;;;;;2.55;1.50;;;9.00;99.90;;;;;;5018205;28;20045;-65
2023/04/10 06:28:07;;;;;;;0.45;0.45;;;9.00;99.90;;;;;;5012569;28;20124;-65
2023/04/10 06:30:33;;;;;;;0.77;0.77;;;9.10;99.90;;;;;;5013306;28;20883;-65
2023/04/10 06:32:59;;;;;;;1.65;1.55;;;9.20;99.90;;;;;;5015260;28;20095;-65
2023/04/10 06:35:24;;;;;;;1.05;1.05;;;9.20;99.90;;;;;;5012449;28;20126;-65
2023/04/10 06:37:50;;;;;;;0.70;0.70;;;9.30;99.90;;;;;;5021152;28;20393;-65
2023/04/10 06:40:16;;;;;;;0.68;0.68;;;9.40;99.90;;;;;;5016972;28;20041;-65
2023/04/10 06:42:41;;;;;;;0.80;0.80;;;9.50;99.90;;;;;;5046151;28;20515;-65
2023/04/10 06:45:08;;;;;;;0.20;0.20;;;9.60;99.90;;;;;;5014710;28;20048;-65
2023/04/10 06:47:33;;;;;;;2.47;2.28;;;9.60;99.90;;;;;;5024914;28;20433;-65
2023/04/10 06:49:59;;;;;;;0.45;0.45;;;9.70;99.90;;;;;;5013755;28;20762;-65
2023/04/10 06:52:25;;;;;;;1.45;1.35;;;9.80;99.90;;;;;;5018684;28;20489;-65
2023/04/10 06:54:51;;;;;;;4.10;2.72;;;9.90;99.90;;;;;;5013556;28;20052;-65
2023/04/10 06:57:17;;;;;;;1.13;1.10;;;10.00;99.90;;;;;;5017424;28;20049;-64
2023/04/10 06:59:43;;;;;;;1.45;1.35;;;10.00;99.90;;;;;;5019902;28;20042;-65
2023/04/10 07:02:09;;;;;;;2.10;1.95;;;10.20;99.90;;;;;;5031075;28;20079;-65
2023/04/10 07:04:34;;;;;;;5.95;2.65;;;10.20;99.90;;;;;;5017584;28;20050;-65
2023/04/10 07:07:00;;;;;;;2.05;1.90;;;10.40;99.90;;;;;;5018123;28;20359;-65
2023/04/10 07:09:26;;;;;;;1.17;1.15;;;10.50;99.90;;;;;;5011687;28;20502;-65
2023/04/10 07:11:52;;;;;;;0.45;0.45;;;10.60;99.90;;;;;;5013981;28;20180;-65
2023/04/10 07:14:18;;;;;;;0.60;0.60;;;10.60;99.90;;;;;;5012613;28;20145;-65
2023/04/10 07:16:43;;;;;;;1.13;1.13;;;10.70;99.90;;;;;;5014960;28;20103;-65
2023/04/10 07:19:09;;;;;;;0.65;0.63;;;10.90;99.90;;;;;;5055385;28;20052;-65
2023/04/10 07:21:35;;;;;;;1.42;1.40;;;10.90;99.90;;;;;;5011210;28;20080;-65
2023/04/10 07:24:01;;;;;;;0.95;0.77;;;10.90;99.90;;;;;;5012330;28;20042;-66
2023/04/10 07:26:27;;;;;;;1.38;1.17;;;11.00;99.90;;;;;;5011324;28;20053;-66
2023/04/10 07:28:53;;;;;;;0.47;0.47;;;11.10;99.90;;;;;;5018994;28;20041;-65
2023/04/10 07:31:18;;;;;;;1.00;0.95;;;11.10;99.90;;;;;;5023494;28;20047;-65
2023/04/10 07:33:45;;;;;;;1.83;1.73;;;11.10;99.90;;;;;;5019768;28;20046;-65
2023/04/10 07:36:11;;;;;;;7.43;1.80;;;11.20;99.90;;;;;;5020873;28;20049;-65
2023/04/10 07:38:37;;;;;;;1.45;1.35;;;11.20;99.90;;;;;;5017759;28;20043;-65
2023/04/10 07:41:04;;;;;;;0.60;0.60;;;11.30;99.90;;;;;;5017782;28;20041;-65
2023/04/10 07:43:30;;;;;;;1.00;1.00;;;11.30;99.90;;;;;;5020542;28;20444;-64
2023/04/10 07:45:56;;;;;;;0.90;0.80;;;11.40;99.90;;;;;;5019072;28;20059;-65
2023/04/10 07:48:21;;;;;;;1.95;1.45;;;11.50;99.90;;;;;;5025675;28;20041;-65
2023/04/10 07:50:47;;;;;;;0.43;0.40;;;11.50;99.90;;;;;;5018345;28;20054;-65
2023/04/10 07:53:13;;;;;;;0.20;0.20;;;11.50;99.90;;;;;;5014255;28;20054;-65
2023/04/10 07:55:41;;;;;;;3.50;2.15;;;11.70;99.90;;;;;;5016446;28;20476;-65
2023/04/10 07:58:06;;;;;;;4.65;2.75;;;11.80;99.90;;;;;;5011556;28;20044;-65
2023/04/10 08:00:32;;;;;;;0.75;0.75;;;11.80;99.90;;;;;;5010471;28;20037;-65
2023/04/10 08:02:58;;;;;;;0.32;0.32;;;11.90;99.90;;;;;;5019866;28;20493;-65
2023/04/10 08:05:23;;;;;;;2.15;1.95;;;12.00;99.90;;;;;;5012729;28;20087;-65
2023/04/10 08:07:49;;;;;;;0.88;0.88;;;12.00;99.90;;;;;;5009891;28;20099;-65
2023/04/10 08:10:15;;;;;;;0.47;0.47;;;12.00;99.90;;;;;;5011043;28;20072;-65
2023/04/10 08:12:40;;;;;;;0.57;0.57;;;12.00;99.90;;;;;;5011554;28;20378;-65
2023/04/10 08:15:06;;;;;;;1.55;1.45;;;12.00;99.90;;;;;;5019925;28;20053;-65
2023/04/10 08:17:32;;;;;;;0.20;0.20;;;12.00;99.90;;;;;;5013006;28;20039;-65
2023/04/10 08:19:57;;;;;;;0.10;0.10;;;12.20;99.90;;;;;;5023462;28;20050;-65
2023/04/10 08:22:23;;;;;;;1.75;1.08;;;12.20;99.90;;;;;;5019656;28;20041;-65
2023/04/10 08:24:49;;;;;;;1.40;1.00;;;12.30;99.90;;;;;;5016359;28;20077;-65
2023/04/10 08:27:15;;;;;;;1.23;1.20;;;12.40;99.90;;;;;;5010377;28;20099;-65
2023/04/10 08:29:41;;;;;;;16.70;1.75;;;12.50;99.90;;;;;;5011577;28;20038;-65
2023/04/10 08:32:07;;;;;;;0.50;0.50;;;12.70;99.90;;;;;;5026773;28;20612;-65
2023/04/10 08:34:33;;;;;;;0.68;0.68;;;12.80;99.90;;;;;;5011046;28;20038;-65
2023/04/10 08:36:59;;;;;;;0.52;0.52;;;13.20;99.90;;;;;;5009071;28;20048;-65
2023/04/10 08:39:24;;;;;;;1.27;1.05;;;13.40;99.90;;;;;;5017801;28;20045;-65
2023/04/10 08:41:50;;;;;;;0.90;0.90;;;13.70;99.90;;;;;;5013916;28;20033;-65
2023/04/10 08:44:16;;;;;;;0.52;0.52;;;13.80;99.90;;;;;;5014432;28;20044;-65
2023/04/10 08:46:43;;;;;;;2.67;0.75;;;13.70;99.90;;;;;;5028753;28;20044;-65
2023/04/10 08:49:16;;;;;;;1.23;1.10;;;13.60;99.90;;;;;;5017810;28;20089;-65
2023/04/10 08:51:53;;;;;;;1.45;0.68;;;13.60;99.90;;;;;;5012925;28;20057;-65
2023/04/10 08:54:27;;;;;;;0.40;0.40;;;13.50;99.90;;;;;;5009651;28;20136;-65
2023/04/10 08:56:54;;;;;;;0.10;0.08;;;13.40;99.90;;;;;;5011538;28;20037;-66
2023/04/10 08:59:20;;;;;;;0.57;0.57;;;13.40;99.90;;;;;;5025278;28;20095;-65
2023/04/10 09:01:46;;;;;;;0.52;0.52;;;13.40;99.90;;;;;;5027700;28;20442;-65
2023/04/10 09:04:12;;;;;;;1.88;1.75;;;13.40;99.90;;;;;;5009421;28;20057;-65
2023/04/10 09:06:38;;;;;;;1.25;0.55;;;13.50;99.90;;;;;;5010004;28;20091;-65
2023/04/10 09:09:05;;;;;;;1.55;1.38;;;13.50;99.90;;;;;;5017607;28;20049;-65
2023/04/10 09:11:54;;;;;;;10.15;3.03;;;13.40;99.90;;;;;;5012894;28;20393;-65
2023/04/10 09:14:24;;;;;;;1.63;1.25;;;13.40;99.90;;;;;;5010125;28;20049;-65
2023/04/10 09:16:52;;;;;;;7.78;1.15;;;13.40;99.90;;;;;;5009950;28;20445;-64
2023/04/10 09:19:31;;;;;;;0.98;0.98;;;13.50;99.90;;;;;;5010439;28;20486;-64
2023/04/10 09:21:57;;;;;;;0.50;0.50;;;13.50;99.90;;;;;;5009943;28;20042;-65
2023/04/10 09:24:23;;;;;;;0.38;0.38;;;13.60;99.90;;;;;;5008420;28;20057;-65
2023/04/10 09:26:49;;;;;;;1.00;0.82;;;13.60;99.90;;;;;;5042192;28;20049;-65
2023/04/10 09:29:17;;;;;;;1.13;1.13;;;13.70;99.90;;;;;;5009008;28;20490;-65
2023/04/10 09:31:43;;;;;;;1.00;0.95;;;13.70;99.90;;;;;;5009415;28;20398;-65
2023/04/10 09:34:22;;;;;;;0.95;0.95;;;13.90;99.90;;;;;;5010972;28;20046;-64
2023/04/10 09:37:00;;;;;;;1.35;1.25;;;13.90;99.90;;;;;;5014089;28;20045;-64
2023/04/10 09:39:41;;;;;;;0.52;0.52;;;13.90;99.90;;;;;;5011432;28;20049;-64
2023/04/10 09:42:08;;;;;;;2.65;0.45;;;13.90;99.90;;;;;;5010668;28;20413;-64
2023/04/10 09:44:36;;;;;;;0.57;0.57;;;13.90;99.90;;;;;;5007562;28;20715;-64
2023/04/10 09:47:22;;;;;;;1.17;1.10;;;13.80;99.90;;;;;;5012711;28;20041;-63
2023/04/10 09:49:55;;;;;;;2.08;1.92;;;13.70;99.90;;;;;;5019852;28;20493;-64
2023/04/10 09:52:22;;;;;;;0.25;0.25;;;13.60;99.90;;;;;;5014880;28;20041;-64
2023/04/10 09:54:47;;;;;;;0.40;0.40;;;13.60;99.90;;;;;;5012376;28;20484;-64
2023/04/10 09:57:18;;;;;;;0.60;0.60;;;13.50;99.90;;;;;;5010168;28;20121;-64
2023/04/10 09:59:52;;;;;;;1.17;1.17;;;13.50;99.90;;;;;;5009103;28;20077;-64
2023/04/10 10:02:20;;;;;;;0.90;0.90;;;13.40;99.90;;;;;;5012675;28;20413;-64
2023/04/10 10:04:47;;;;;;;4.55;0.82;;;13.40;99.90;;;;;;5013474;28;20050;-63
2023/04/10 10:07:17;;;;;;;1.15;1.15;;;13.50;99.90;;;;;;5018379;28;20095;-64
2023/04/10 10:09:44;;;;;;;0.20;0.20;;;13.50;99.90;;;;;;5012806;28;20041;-64
2023/04/10 10:12:18;;;;;;;0.40;0.40;;;13.50;99.90;;;;;;5021565;28;20112;-65
2023/04/10 10:14:54;;;;;;;;;;;13.50;99.90;;;;;;5012620;28;20374;-64
2023/04/10 10:17:25;;;;;;;0.43;0.43;;;13.50;99.90;;;;;;5023486;28;20376;-64
2023/04/10 10:20:07;;;;;;;0.68;0.60;;;13.60;99.90;;;;;;5031782;28;20045;-64
2023/04/10 10:22:35;;;;;;;0.65;0.65;;;13.70;99.90;;;;;;5021951;28;20041;-64
2023/04/10 10:25:01;;;;;;;0.47;0.38;;;13.80;99.90;;;;;;5009374;28;22818;-64
2023/04/10 10:27:31;;;;;;;0.45;0.45;;;13.80;99.90;;;;;;5015708;28;20121;-63
2023/04/10 10:29:59;;;;;;;0.20;0.20;;;13.90;99.90;;;;;;5022014;28;20128;-63
2023/04/10 10:32:26;;;;;;;1.35;1.17;;;13.90;99.90;;;;;;5045434;28;20558;-63
2023/04/10 10:34:52;;;;;;;0.45;0.45;;;14.00;99.90;;;;;;5019301;28;20048;-64
2023/04/10 10:37:20;;;;;;;0.63;0.63;;;14.10;99.90;;;;;;5015724;28;20026;-65
2023/04/10 10:40:11;;;;;;;0.75;0.75;;;14.10;99.90;;;;;;5011918;28;20046;-64
2023/04/10 10:42:48;;;;;;;0.70;0.70;;;14.10;99.90;;;;;;5012439;28;20682;-64
2023/04/10 10:45:22;;;;;;;0.15;0.15;;;14.10;99.90;;;;;;5024914;28;20442;-64
2023/04/10 10:47:53;;;;;;;0.60;0.60;;;14.10;99.90;;;;;;5023061;28;20113;-64
2023/04/10 10:50:20;;;;;;;3.72;0.90;;;14.20;99.90;;;;;;5017348;28;20089;-64
2023/04/10 10:52:56;;;;;;;2.10;1.92;;;14.10;99.90;;;;;;5025363;28;20053;-64
2023/04/10 10:55:21;;;;;;;2.28;1.25;;;14.10;99.90;;;;;;5012159;28;20052;-64
2023/04/10 10:57:51;;;;;;;0.60;0.60;;;14.10;99.90;;;;;;5016658;28;20427;-65
2023/04/10 11:00:18;;;;;;;4.30;1.95;;;14.10;99.90;;;;;;5016634;28;20050;-64
2023/04/10 11:02:43;;;;;;;0.50;0.50;;;14.10;99.90;;;;;;5014082;28;20088;-64
2023/04/10 11:05:09;;;;;;;0.15;0.15;;;14.20;99.90;;;;;;5013077;28;20045;-64
2023/04/10 11:07:57;;;;;;;1.52;1.42;;;14.20;99.90;;;;;;5012366;28;20551;-64
2023/04/10 11:11:04;;;;;;;3.00;2.78;;;14.20;99.90;;;;;;5011246;28;20050;-64
2023/04/10 11:13:37;;;;;;;0.25;0.25;;;14.30;99.90;;;;;;5010706;28;20120;-64
2023/04/10 11:16:05;;;;;;;3.13;1.05;;;14.40;99.90;;;;;;5012878;28;20053;-65
2023/04/10 11:18:49;;;;;;;5.82;0.82;;;14.40;99.90;;;;;;5010805;28;20047;-65
2023/04/10 11:21:19;;;;;;;0.82;0.82;;;14.70;99.90;;;;;;5017479;28;20046;-65
2023/04/10 11:23:57;;;;;;;9.48;1.98;;;14.80;99.90;;;;;;5020659;28;20073;-65
2023/04/10 11:26:38;;;;;;;0.30;0.30;;;14.90;99.90;;;;;;5012420;28;20050;-65
2023/04/10 11:29:11;;;;;;;0.10;0.10;;;15.00;99.90;;;;;;5013423;28;20121;-65
2023/04/10 11:31:37;;;;;;;0.87;0.87;;;15.10;99.90;;;;;;5012498;28;20046;-65
2023/04/10 11:34:05;;;;;;;1.52;1.42;;;15.20;99.90;;;;;;5011698;28;20176;-65
2023/04/10 11:36:31;;;;;;;1.27;1.17;;;15.20;99.90;;;;;;5043757;28;20481;-65
2023/04/10 11:39:04;;;;;;;0.77;0.77;;;15.20;99.90;;;;;;5010181;28;20489;-65
2023/04/10 11:41:35;;;;;;;0.47;0.47;;;15.30;99.90;;;;;;5012006;28;20046;-65
2023/04/10 11:44:03;;;;;;;0.38;0.38;;;15.40;99.90;;;;;;5011781;28;20034;-64
2023/04/10 11:46:29;;;;;;;5.88;1.48;;;15.30;99.90;;;;;;5016493;28;20042;-64
2023/04/10 11:49:00;;;;;;;0.40;0.40;;;15.40;99.90;;;;;;5013034;28;20049;-65
2023/04/10 11:51:27;;;;;;;0.63;0.63;;;15.40;99.90;;;;;;5015825;28;20060;-64
2023/04/10 11:54:08;;;;;;;0.40;0.40;;;15.30;99.90;;;;;;5018150;28;20046;-64
2023/04/10 11:56:35;;;;;;;0.32;0.32;;;15.30;99.90;;;;;;5011795;28;20053;-65
2023/04/10 11:59:06;;;;;;;0.28;0.28;;;15.40;99.90;;;;;;5015126;28;20034;-64
2023/04/10 12:01:35;;;;;;;0.47;0.47;;;15.40;99.90;;;;;;5010943;28;20116;-64
2023/04/10 12:04:01;;;;;;;0.73;0.63;;;15.50;99.90;;;;;;5011961;28;20092;-64
2023/04/10 12:06:28;;;;;;;0.10;0.10;;;15.30;99.90;;;;;;5022353;28;20049;-64
2023/04/10 12:08:54;;;;;;;1.23;1.13;;;15.30;99.90;;;;;;5018518;28;20033;-65
2023/04/10 12:11:24;;;;;;;0.63;0.52;;;15.10;99.90;;;;;;5019390;28;20046;-65
2023/04/10 12:13:55;;;;;;;7.22;1.30;;;15.10;99.90;;;;;;5022938;28;20038;-64
2023/04/10 12:16:21;;;;;;;0.25;0.25;;;14.90;99.90;;;;;;5026018;28;20037;-64
2023/04/10 12:18:48;;;;;;;1.00;1.00;;;14.90;99.90;;;;;;5025879;28;20042;-64
2023/04/10 12:21:14;;;;;;;0.40;0.40;;;14.90;99.90;;;;;;5019278;28;20038;-63
2023/04/10 12:23:40;;;;;;;0.47;0.47;;;14.90;99.90;;;;;;5014846;28;20470;-63
2023/04/10 12:26:15;;;;;;;0.20;0.20;;;14.80;99.90;;;;;;5011202;28;20156;-63
2023/04/10 12:28:50;;;;;;;0.15;0.15;;;14.80;99.90;;;;;;5018939;28;20050;-63
2023/04/10 12:31:16;;;;;;;0.30;0.30;;;14.80;99.90;;;;;;5009885;28;20046;-63
2023/04/10 12:33:45;;;;;;;1.45;0.95;;;14.70;99.90;;;;;;5010008;28;20096;-63
2023/04/10 12:36:21;;;;;;;0.75;0.75;;;14.70;99.90;;;;;;5011163;28;20121;-63
2023/04/10 12:38:46;;;;;;;0.28;0.28;;;14.70;99.90;;;;;;5011303;28;20080;-63
2023/04/10 12:41:12;;;;;;;1.42;1.33;;;14.70;99.90;;;;;;5015111;28;20449;-63
2023/04/10 12:43:40;;;;;;;0.52;0.52;;;14.70;99.90;;;;;;5026718;28;20047;-63
2023/04/10 12:46:07;;;;;;;0.10;0.10;;;14.70;99.90;;;;;;5015036;28;20087;-63
2023/04/10 12:48:33;;;;;;;4.30;1.85;;;14.70;99.90;;;;;;5018490;28;20045;-63
2023/04/10 12:50:59;;;;;;;0.65;0.47;;;14.70;99.90;;;;;;5013422;28;20516;-64
2023/04/10 12:53:26;;;;;;;0.08;0.08;;;14.70;99.90;;;;;;5021201;28;20485;-63
2023/04/10 12:56:02;;;;;;;0.55;0.55;;;14.70;99.90;;;;;;5015079;28;20045;-64